sensor_id;sensor_type;location;lat;lon;timestamp;P1;durP1;ratioP1;P2;durP2;ratioP2
52210;SDS011;38179;52.756;6.906;2023-03-22T00:01:14;18.60;;;15.95;;
52210;SDS011;38179;52.756;6.906;2023-03-22T00:03:42;17.92;;;16.02;;
52210;SDS011;38179;52.756;6.906;2023-03-22T00:06:08;18.30;;;16.27;;
52210;SDS011;38179;52.756;6.906;2023-03-22T00:08:34;19.52;;;15.40;;
52210;SDS011;38179;52.756;6.906;2023-03-22T00:11:00;17.92;;;15.23;;
52210;SDS011;38179;52.756;6.906;2023-03-22T00:15:56;21.02;;;15.52;;
52210;SDS011;38179;52.756;6.906;2023-03-22T00:18:24;18.65;;;15.23;;
52210;SDS011;38179;52.756;6.906;2023-03-22T00:20:51;16.92;;;14.75;;
52210;SDS011;38179;52.756;6.906;2023-03-22T00:23:19;20.50;;;15.40;;
52210;SDS011;38179;52.756;6.906;2023-03-22T00:25:45;17.25;;;14.95;;
52210;SDS011;38179;52.756;6.906;2023-03-22T00:28:12;18.27;;;15.75;;
52210;SDS011;38179;52.756;6.906;2023-03-22T00:30:40;21.98;;;16.25;;
52210;SDS011;38179;52.756;6.906;2023-03-22T00:33:07;20.35;;;16.30;;
52210;SDS011;38179;52.756;6.906;2023-03-22T00:35:33;20.05;;;14.95;;
52210;SDS011;38179;52.756;6.906;2023-03-22T00:38:00;17.38;;;15.27;;
52210;SDS011;38179;52.756;6.906;2023-03-22T00:40:30;17.33;;;15.02;;
52210;SDS011;38179;52.756;6.906;2023-03-22T00:42:57;21.65;;;15.93;;
52210;SDS011;38179;52.756;6.906;2023-03-22T00:45:24;21.95;;;15.48;;
52210;SDS011;38179;52.756;6.906;2023-03-22T00:47:51;17.60;;;14.88;;
52210;SDS011;38179;52.756;6.906;2023-03-22T00:50:16;18.30;;;14.77;;
52210;SDS011;38179;52.756;6.906;2023-03-22T00:52:43;19.02;;;14.32;;
52210;SDS011;38179;52.756;6.906;2023-03-22T00:55:09;18.23;;;14.35;;
52210;SDS011;38179;52.756;6.906;2023-03-22T00:57:35;17.77;;;14.15;;
52210;SDS011;38179;52.756;6.906;2023-03-22T01:00:03;16.73;;;13.55;;
52210;SDS011;38179;52.756;6.906;2023-03-22T01:02:38;22.13;;;14.30;;
52210;SDS011;38179;52.756;6.906;2023-03-22T01:05:05;17.35;;;14.02;;
52210;SDS011;38179;52.756;6.906;2023-03-22T01:07:31;19.23;;;13.40;;
52210;SDS011;38179;52.756;6.906;2023-03-22T01:09:57;19.77;;;14.35;;
52210;SDS011;38179;52.756;6.906;2023-03-22T01:12:24;18.75;;;13.50;;
52210;SDS011;38179;52.756;6.906;2023-03-22T01:14:51;18.77;;;14.18;;
52210;SDS011;38179;52.756;6.906;2023-03-22T01:17:20;19.05;;;13.50;;
52210;SDS011;38179;52.756;6.906;2023-03-22T01:19:46;17.42;;;13.63;;
52210;SDS011;38179;52.756;6.906;2023-03-22T01:22:12;19.88;;;13.30;;
52210;SDS011;38179;52.756;6.906;2023-03-22T01:24:38;14.65;;;12.90;;
52210;SDS011;38179;52.756;6.906;2023-03-22T01:27:04;17.17;;;12.50;;
52210;SDS011;38179;52.756;6.906;2023-03-22T01:29:30;15.20;;;12.60;;
52210;SDS011;38179;52.756;6.906;2023-03-22T01:31:56;17.65;;;12.40;;
52210;SDS011;38179;52.756;6.906;2023-03-22T01:34:22;14.88;;;12.23;;
52210;SDS011;38179;52.756;6.906;2023-03-22T01:36:51;19.55;;;12.30;;
52210;SDS011;38179;52.756;6.906;2023-03-22T01:39:17;15.77;;;11.48;;
52210;SDS011;38179;52.756;6.906;2023-03-22T01:41:45;15.48;;;11.80;;
52210;SDS011;38179;52.756;6.906;2023-03-22T01:46:42;17.90;;;12.20;;
52210;SDS011;38179;52.756;6.906;2023-03-22T01:49:43;16.75;;;11.85;;
52210;SDS011;38179;52.756;6.906;2023-03-22T01:52:05;16.45;;;12.50;;
52210;SDS011;38179;52.756;6.906;2023-03-22T01:54:46;13.93;;;11.68;;
52210;SDS011;38179;52.756;6.906;2023-03-22T01:57:14;16.90;;;11.35;;
52210;SDS011;38179;52.756;6.906;2023-03-22T01:59:40;15.15;;;11.88;;
52210;SDS011;38179;52.756;6.906;2023-03-22T02:02:09;16.50;;;11.80;;
52210;SDS011;38179;52.756;6.906;2023-03-22T02:04:45;17.35;;;11.43;;
52210;SDS011;38179;52.756;6.906;2023-03-22T02:07:15;15.32;;;11.25;;
52210;SDS011;38179;52.756;6.906;2023-03-22T02:09:50;15.07;;;11.85;;
52210;SDS011;38179;52.756;6.906;2023-03-22T02:17:41;19.63;;;10.95;;
52210;SDS011;38179;52.756;6.906;2023-03-22T02:31:55;16.05;;;11.30;;
52210;SDS011;38179;52.756;6.906;2023-03-22T02:40:07;16.27;;;11.85;;
52210;SDS011;38179;52.756;6.906;2023-03-22T02:45:23;14.15;;;10.85;;
52210;SDS011;38179;52.756;6.906;2023-03-22T02:48:10;13.43;;;10.48;;
52210;SDS011;38179;52.756;6.906;2023-03-22T02:56:04;13.18;;;10.48;;
52210;SDS011;38179;52.756;6.906;2023-03-22T02:58:56;14.48;;;10.63;;
52210;SDS011;38179;52.756;6.906;2023-03-22T03:01:26;16.35;;;11.02;;
52210;SDS011;38179;52.756;6.906;2023-03-22T03:04:09;14.77;;;10.63;;
52210;SDS011;38179;52.756;6.906;2023-03-22T03:06:41;13.57;;;11.07;;
52210;SDS011;38179;52.756;6.906;2023-03-22T03:09:12;17.25;;;10.95;;
52210;SDS011;38179;52.756;6.906;2023-03-22T03:11:46;12.65;;;10.40;;
52210;SDS011;38179;52.756;6.906;2023-03-22T03:14:21;14.63;;;11.23;;
52210;SDS011;38179;52.756;6.906;2023-03-22T03:19:52;18.50;;;11.23;;
52210;SDS011;38179;52.756;6.906;2023-03-22T03:25:38;15.55;;;10.77;;
52210;SDS011;38179;52.756;6.906;2023-03-22T03:28:32;12.57;;;11.00;;
52210;SDS011;38179;52.756;6.906;2023-03-22T03:33:50;16.65;;;10.68;;
52210;SDS011;38179;52.756;6.906;2023-03-22T03:36:41;14.07;;;10.75;;
52210;SDS011;38179;52.756;6.906;2023-03-22T03:39:16;15.50;;;10.40;;
52210;SDS011;38179;52.756;6.906;2023-03-22T03:41:45;13.43;;;10.18;;
52210;SDS011;38179;52.756;6.906;2023-03-22T03:44:14;14.27;;;10.77;;
52210;SDS011;38179;52.756;6.906;2023-03-22T03:46:41;15.65;;;10.77;;
52210;SDS011;38179;52.756;6.906;2023-03-22T03:49:09;13.68;;;11.02;;
52210;SDS011;38179;52.756;6.906;2023-03-22T03:51:50;12.93;;;10.20;;
52210;SDS011;38179;52.756;6.906;2023-03-22T03:54:18;15.60;;;10.65;;
52210;SDS011;38179;52.756;6.906;2023-03-22T03:56:45;13.80;;;10.63;;
52210;SDS011;38179;52.756;6.906;2023-03-22T03:59:12;13.50;;;11.00;;
52210;SDS011;38179;52.756;6.906;2023-03-22T04:01:43;13.23;;;11.13;;
52210;SDS011;38179;52.756;6.906;2023-03-22T04:04:24;16.48;;;11.50;;
52210;SDS011;38179;52.756;6.906;2023-03-22T04:06:55;16.05;;;11.88;;
52210;SDS011;38179;52.756;6.906;2023-03-22T04:09:27;15.05;;;11.68;;
52210;SDS011;38179;52.756;6.906;2023-03-22T04:12:00;15.40;;;12.13;;
52210;SDS011;38179;52.756;6.906;2023-03-22T04:14:26;19.17;;;13.07;;
52210;SDS011;38179;52.756;6.906;2023-03-22T04:16:53;14.55;;;12.65;;
52210;SDS011;38179;52.756;6.906;2023-03-22T04:19:20;15.73;;;14.13;;
52210;SDS011;38179;52.756;6.906;2023-03-22T04:21:47;18.50;;;14.38;;
52210;SDS011;38179;52.756;6.906;2023-03-22T04:24:13;20.48;;;15.38;;
52210;SDS011;38179;52.756;6.906;2023-03-22T04:26:39;16.52;;;14.52;;
52210;SDS011;38179;52.756;6.906;2023-03-22T04:29:06;20.58;;;15.85;;
52210;SDS011;38179;52.756;6.906;2023-03-22T04:31:33;21.60;;;16.73;;
52210;SDS011;38179;52.756;6.906;2023-03-22T04:34:03;20.30;;;16.48;;
52210;SDS011;38179;52.756;6.906;2023-03-22T04:36:34;18.25;;;16.35;;
52210;SDS011;38179;52.756;6.906;2023-03-22T04:39:07;23.05;;;17.08;;
52210;SDS011;38179;52.756;6.906;2023-03-22T04:41:35;21.55;;;17.35;;
52210;SDS011;38179;52.756;6.906;2023-03-22T04:44:07;23.42;;;17.23;;
52210;SDS011;38179;52.756;6.906;2023-03-22T04:46:34;21.00;;;17.80;;
52210;SDS011;38179;52.756;6.906;2023-03-22T04:49:01;23.33;;;18.33;;
52210;SDS011;38179;52.756;6.906;2023-03-22T04:51:27;20.23;;;17.60;;
52210;SDS011;38179;52.756;6.906;2023-03-22T04:53:54;21.38;;;18.67;;
52210;SDS011;38179;52.756;6.906;2023-03-22T04:56:20;19.88;;;17.77;;
52210;SDS011;38179;52.756;6.906;2023-03-22T04:58:46;21.05;;;18.15;;
52210;SDS011;38179;52.756;6.906;2023-03-22T05:01:12;22.95;;;17.90;;
52210;SDS011;38179;52.756;6.906;2023-03-22T05:03:43;20.30;;;16.85;;
52210;SDS011;38179;52.756;6.906;2023-03-22T05:08:38;20.55;;;17.00;;
52210;SDS011;38179;52.756;6.906;2023-03-22T05:11:08;19.80;;;17.10;;
52210;SDS011;38179;52.756;6.906;2023-03-22T05:13:36;19.10;;;16.95;;
52210;SDS011;38179;52.756;6.906;2023-03-22T05:16:03;21.42;;;16.95;;
52210;SDS011;38179;52.756;6.906;2023-03-22T05:18:29;20.48;;;17.15;;
52210;SDS011;38179;52.756;6.906;2023-03-22T05:20:57;19.83;;;17.52;;
52210;SDS011;38179;52.756;6.906;2023-03-22T05:23:27;22.88;;;18.00;;
52210;SDS011;38179;52.756;6.906;2023-03-22T05:25:54;20.08;;;17.77;;
52210;SDS011;38179;52.756;6.906;2023-03-22T05:28:22;18.60;;;16.63;;
52210;SDS011;38179;52.756;6.906;2023-03-22T05:30:49;20.02;;;17.30;;
52210;SDS011;38179;52.756;6.906;2023-03-22T05:33:16;23.90;;;18.05;;
52210;SDS011;38179;52.756;6.906;2023-03-22T05:35:49;28.15;;;17.92;;
52210;SDS011;38179;52.756;6.906;2023-03-22T05:38:19;18.88;;;16.88;;
52210;SDS011;38179;52.756;6.906;2023-03-22T05:40:49;21.70;;;16.98;;
52210;SDS011;38179;52.756;6.906;2023-03-22T05:43:15;20.13;;;16.08;;
52210;SDS011;38179;52.756;6.906;2023-03-22T05:45:41;20.67;;;16.65;;
52210;SDS011;38179;52.756;6.906;2023-03-22T05:48:07;20.90;;;18.02;;
52210;SDS011;38179;52.756;6.906;2023-03-22T05:50:34;19.15;;;16.60;;
52210;SDS011;38179;52.756;6.906;2023-03-22T05:53:00;22.48;;;17.48;;
52210;SDS011;38179;52.756;6.906;2023-03-22T05:55:27;20.40;;;16.60;;
52210;SDS011;38179;52.756;6.906;2023-03-22T05:57:56;20.67;;;17.27;;
52210;SDS011;38179;52.756;6.906;2023-03-22T06:00:23;19.00;;;17.00;;
52210;SDS011;38179;52.756;6.906;2023-03-22T06:02:49;20.30;;;16.10;;
52210;SDS011;38179;52.756;6.906;2023-03-22T06:05:20;18.90;;;16.10;;
52210;SDS011;38179;52.756;6.906;2023-03-22T06:07:47;20.52;;;16.33;;
52210;SDS011;38179;52.756;6.906;2023-03-22T06:10:13;19.67;;;15.65;;
52210;SDS011;38179;52.756;6.906;2023-03-22T06:12:40;22.13;;;17.25;;
52210;SDS011;38179;52.756;6.906;2023-03-22T06:15:06;19.27;;;15.57;;
52210;SDS011;38179;52.756;6.906;2023-03-22T06:17:33;21.90;;;15.77;;
52210;SDS011;38179;52.756;6.906;2023-03-22T06:19:59;22.13;;;15.73;;
52210;SDS011;38179;52.756;6.906;2023-03-22T06:22:25;19.73;;;15.68;;
52210;SDS011;38179;52.756;6.906;2023-03-22T06:24:57;21.05;;;15.82;;
52210;SDS011;38179;52.756;6.906;2023-03-22T06:27:23;21.25;;;16.33;;
52210;SDS011;38179;52.756;6.906;2023-03-22T06:29:49;20.13;;;15.45;;
52210;SDS011;38179;52.756;6.906;2023-03-22T06:32:18;22.00;;;15.88;;
52210;SDS011;38179;52.756;6.906;2023-03-22T06:34:50;19.25;;;16.17;;
52210;SDS011;38179;52.756;6.906;2023-03-22T06:37:17;19.10;;;14.93;;
52210;SDS011;38179;52.756;6.906;2023-03-22T06:39:44;18.02;;;14.75;;
52210;SDS011;38179;52.756;6.906;2023-03-22T06:42:10;20.42;;;14.70;;
52210;SDS011;38179;52.756;6.906;2023-03-22T06:44:36;17.38;;;14.85;;
52210;SDS011;38179;52.756;6.906;2023-03-22T06:47:02;18.58;;;14.23;;
52210;SDS011;38179;52.756;6.906;2023-03-22T06:49:29;16.95;;;14.23;;
52210;SDS011;38179;52.756;6.906;2023-03-22T06:51:55;17.35;;;13.90;;
52210;SDS011;38179;52.756;6.906;2023-03-22T06:54:21;18.48;;;14.25;;
52210;SDS011;38179;52.756;6.906;2023-03-22T06:56:48;17.17;;;13.30;;
52210;SDS011;38179;52.756;6.906;2023-03-22T06:59:13;20.10;;;14.35;;
52210;SDS011;38179;52.756;6.906;2023-03-22T07:01:39;17.55;;;13.80;;
52210;SDS011;38179;52.756;6.906;2023-03-22T07:06:36;16.63;;;13.40;;
52210;SDS011;38179;52.756;6.906;2023-03-22T07:09:02;17.98;;;14.27;;
52210;SDS011;38179;52.756;6.906;2023-03-22T07:11:27;19.23;;;13.95;;
52210;SDS011;38179;52.756;6.906;2023-03-22T07:13:55;19.38;;;13.27;;
52210;SDS011;38179;52.756;6.906;2023-03-22T07:16:21;15.93;;;12.98;;
52210;SDS011;38179;52.756;6.906;2023-03-22T07:18:47;18.77;;;13.40;;
52210;SDS011;38179;52.756;6.906;2023-03-22T07:21:13;17.67;;;13.55;;
52210;SDS011;38179;52.756;6.906;2023-03-22T07:23:39;16.95;;;13.02;;
52210;SDS011;38179;52.756;6.906;2023-03-22T07:26:07;16.05;;;12.68;;
52210;SDS011;38179;52.756;6.906;2023-03-22T07:28:33;15.13;;;12.40;;
52210;SDS011;38179;52.756;6.906;2023-03-22T07:31:00;16.98;;;13.15;;
52210;SDS011;38179;52.756;6.906;2023-03-22T07:33:27;15.77;;;12.50;;
52210;SDS011;38179;52.756;6.906;2023-03-22T07:35:53;16.95;;;12.88;;
52210;SDS011;38179;52.756;6.906;2023-03-22T07:38:18;13.52;;;11.88;;
52210;SDS011;38179;52.756;6.906;2023-03-22T07:40:44;16.52;;;12.32;;
52210;SDS011;38179;52.756;6.906;2023-03-22T07:43:11;14.98;;;12.10;;
52210;SDS011;38179;52.756;6.906;2023-03-22T07:45:39;15.75;;;11.07;;
52210;SDS011;38179;52.756;6.906;2023-03-22T07:48:05;15.55;;;11.25;;
52210;SDS011;38179;52.756;6.906;2023-03-22T07:50:35;16.65;;;11.38;;
52210;SDS011;38179;52.756;6.906;2023-03-22T07:53:01;14.35;;;11.88;;
52210;SDS011;38179;52.756;6.906;2023-03-22T07:55:28;16.85;;;11.27;;
52210;SDS011;38179;52.756;6.906;2023-03-22T07:57:54;17.30;;;12.27;;
52210;SDS011;38179;52.756;6.906;2023-03-22T08:00:20;19.70;;;11.60;;
52210;SDS011;38179;52.756;6.906;2023-03-22T08:02:48;12.65;;;11.35;;
52210;SDS011;38179;52.756;6.906;2023-03-22T08:05:14;15.75;;;11.80;;
52210;SDS011;38179;52.756;6.906;2023-03-22T08:07:39;19.90;;;14.82;;
52210;SDS011;38179;52.756;6.906;2023-03-22T08:10:06;15.00;;;10.88;;
52210;SDS011;38179;52.756;6.906;2023-03-22T08:12:32;14.43;;;10.45;;
52210;SDS011;38179;52.756;6.906;2023-03-22T08:14:59;12.60;;;10.57;;
52210;SDS011;38179;52.756;6.906;2023-03-22T08:17:25;18.23;;;10.93;;
52210;SDS011;38179;52.756;6.906;2023-03-22T08:19:51;13.10;;;10.70;;
52210;SDS011;38179;52.756;6.906;2023-03-22T08:22:20;13.23;;;10.68;;
52210;SDS011;38179;52.756;6.906;2023-03-22T08:24:53;17.38;;;11.07;;
52210;SDS011;38179;52.756;6.906;2023-03-22T08:27:20;14.25;;;10.80;;
52210;SDS011;38179;52.756;6.906;2023-03-22T08:29:47;13.95;;;10.63;;
52210;SDS011;38179;52.756;6.906;2023-03-22T08:32:14;13.63;;;10.57;;
52210;SDS011;38179;52.756;6.906;2023-03-22T08:34:41;16.65;;;11.07;;
52210;SDS011;38179;52.756;6.906;2023-03-22T08:37:07;14.93;;;10.63;;
52210;SDS011;38179;52.756;6.906;2023-03-22T08:39:34;15.95;;;10.30;;
52210;SDS011;38179;52.756;6.906;2023-03-22T08:42:00;29.83;;;11.00;;
52210;SDS011;38179;52.756;6.906;2023-03-22T08:44:27;14.02;;;10.25;;
52210;SDS011;38179;52.756;6.906;2023-03-22T08:46:53;12.43;;;10.20;;
52210;SDS011;38179;52.756;6.906;2023-03-22T08:49:19;13.38;;;10.13;;
52210;SDS011;38179;52.756;6.906;2023-03-22T08:51:45;12.80;;;9.85;;
52210;SDS011;38179;52.756;6.906;2023-03-22T08:54:11;14.15;;;10.90;;
52210;SDS011;38179;52.756;6.906;2023-03-22T08:56:38;13.90;;;11.00;;
52210;SDS011;38179;52.756;6.906;2023-03-22T08:59:06;18.58;;;10.90;;
52210;SDS011;38179;52.756;6.906;2023-03-22T09:03:59;16.15;;;10.63;;
52210;SDS011;38179;52.756;6.906;2023-03-22T09:06:26;12.48;;;9.93;;
52210;SDS011;38179;52.756;6.906;2023-03-22T09:08:52;13.45;;;10.05;;
52210;SDS011;38179;52.756;6.906;2023-03-22T09:11:19;15.13;;;10.82;;
52210;SDS011;38179;52.756;6.906;2023-03-22T09:13:46;17.70;;;11.00;;
52210;SDS011;38179;52.756;6.906;2023-03-22T09:16:13;13.07;;;9.93;;
52210;SDS011;38179;52.756;6.906;2023-03-22T09:18:39;18.00;;;10.88;;
52210;SDS011;38179;52.756;6.906;2023-03-22T09:21:05;18.13;;;10.80;;
52210;SDS011;38179;52.756;6.906;2023-03-22T09:23:33;13.85;;;10.75;;
52210;SDS011;38179;52.756;6.906;2023-03-22T09:26:00;16.50;;;10.70;;
52210;SDS011;38179;52.756;6.906;2023-03-22T09:28:28;15.73;;;11.55;;
52210;SDS011;38179;52.756;6.906;2023-03-22T09:30:58;15.07;;;10.80;;
52210;SDS011;38179;52.756;6.906;2023-03-22T09:33:25;13.80;;;11.32;;
52210;SDS011;38179;52.756;6.906;2023-03-22T09:35:52;14.77;;;11.13;;
52210;SDS011;38179;52.756;6.906;2023-03-22T09:38:18;16.08;;;11.07;;
52210;SDS011;38179;52.756;6.906;2023-03-22T09:40:51;13.15;;;10.63;;
52210;SDS011;38179;52.756;6.906;2023-03-22T09:43:28;13.52;;;10.23;;
52210;SDS011;38179;52.756;6.906;2023-03-22T09:45:59;16.45;;;11.02;;
52210;SDS011;38179;52.756;6.906;2023-03-22T09:48:29;13.50;;;11.15;;
52210;SDS011;38179;52.756;6.906;2023-03-22T09:51:02;13.27;;;10.77;;
52210;SDS011;38179;52.756;6.906;2023-03-22T09:53:31;15.52;;;11.70;;
52210;SDS011;38179;52.756;6.906;2023-03-22T09:58:58;14.38;;;10.98;;
52210;SDS011;38179;52.756;6.906;2023-03-22T10:01:54;14.60;;;11.50;;
52210;SDS011;38179;52.756;6.906;2023-03-22T10:07:26;16.08;;;10.90;;
52210;SDS011;38179;52.756;6.906;2023-03-22T10:10:11;14.20;;;10.82;;
52210;SDS011;38179;52.756;6.906;2023-03-22T10:12:57;19.58;;;10.88;;
52210;SDS011;38179;52.756;6.906;2023-03-22T10:15:48;13.77;;;11.45;;
52210;SDS011;38179;52.756;6.906;2023-03-22T10:18:26;14.75;;;11.15;;
52210;SDS011;38179;52.756;6.906;2023-03-22T10:21:06;16.15;;;12.00;;
52210;SDS011;38179;52.756;6.906;2023-03-22T10:23:37;15.88;;;11.65;;
52210;SDS011;38179;52.756;6.906;2023-03-22T10:26:20;19.85;;;11.02;;
52210;SDS011;38179;52.756;6.906;2023-03-22T10:29:00;13.10;;;10.70;;
52210;SDS011;38179;52.756;6.906;2023-03-22T10:31:45;13.25;;;11.18;;
52210;SDS011;38179;52.756;6.906;2023-03-22T10:36:45;16.92;;;12.32;;
52210;SDS011;38179;52.756;6.906;2023-03-22T10:41:47;12.32;;;10.98;;
52210;SDS011;38179;52.756;6.906;2023-03-22T10:44:16;15.35;;;11.10;;
52210;SDS011;38179;52.756;6.906;2023-03-22T10:46:43;15.88;;;11.07;;
52210;SDS011;38179;52.756;6.906;2023-03-22T10:49:12;15.77;;;11.48;;
52210;SDS011;38179;52.756;6.906;2023-03-22T10:51:49;15.63;;;11.90;;
52210;SDS011;38179;52.756;6.906;2023-03-22T10:54:19;15.13;;;11.32;;
52210;SDS011;38179;52.756;6.906;2023-03-22T10:56:46;15.85;;;11.73;;
52210;SDS011;38179;52.756;6.906;2023-03-22T11:02:17;14.23;;;12.13;;
52210;SDS011;38179;52.756;6.906;2023-03-22T11:04:46;17.52;;;11.98;;
52210;SDS011;38179;52.756;6.906;2023-03-22T11:07:27;16.92;;;12.35;;
52210;SDS011;38179;52.756;6.906;2023-03-22T11:13:18;16.75;;;12.20;;
52210;SDS011;38179;52.756;6.906;2023-03-22T11:15:35;17.45;;;12.40;;
52210;SDS011;38179;52.756;6.906;2023-03-22T11:18:06;13.18;;;11.25;;
52210;SDS011;38179;52.756;6.906;2023-03-22T11:20:41;15.77;;;11.30;;
52210;SDS011;38179;52.756;6.906;2023-03-22T11:23:18;18.60;;;11.73;;
52210;SDS011;38179;52.756;6.906;2023-03-22T11:25:46;15.27;;;11.85;;
52210;SDS011;38179;52.756;6.906;2023-03-22T11:31:00;13.07;;;11.18;;
52210;SDS011;38179;52.756;6.906;2023-03-22T11:33:32;16.33;;;10.95;;
52210;SDS011;38179;52.756;6.906;2023-03-22T11:36:02;13.48;;;11.32;;
52210;SDS011;38179;52.756;6.906;2023-03-22T11:38:41;12.93;;;11.13;;
52210;SDS011;38179;52.756;6.906;2023-03-22T11:41:20;15.07;;;12.35;;
52210;SDS011;38179;52.756;6.906;2023-03-22T11:44:00;20.88;;;13.00;;
52210;SDS011;38179;52.756;6.906;2023-03-22T11:46:31;14.23;;;11.70;;
52210;SDS011;38179;52.756;6.906;2023-03-22T11:51:29;16.05;;;11.60;;
52210;SDS011;38179;52.756;6.906;2023-03-22T11:54:08;13.48;;;11.57;;
52210;SDS011;38179;52.756;6.906;2023-03-22T11:56:45;13.57;;;11.33;;
52210;SDS011;38179;52.756;6.906;2023-03-22T11:59:21;15.90;;;11.60;;
52210;SDS011;38179;52.756;6.906;2023-03-22T12:04:27;17.92;;;11.77;;
52210;SDS011;38179;52.756;6.906;2023-03-22T12:06:58;18.35;;;12.35;;
52210;SDS011;38179;52.756;6.906;2023-03-22T12:12:10;16.92;;;11.02;;
52210;SDS011;38179;52.756;6.906;2023-03-22T12:14:53;15.07;;;11.18;;
52210;SDS011;38179;52.756;6.906;2023-03-22T12:17:27;15.13;;;11.95;;
52210;SDS011;38179;52.756;6.906;2023-03-22T12:20:01;14.18;;;11.10;;
52210;SDS011;38179;52.756;6.906;2023-03-22T12:22:37;14.43;;;11.70;;
52210;SDS011;38179;52.756;6.906;2023-03-22T12:25:26;16.17;;;11.00;;
52210;SDS011;38179;52.756;6.906;2023-03-22T12:30:27;13.10;;;10.00;;
52210;SDS011;38179;52.756;6.906;2023-03-22T12:32:57;12.98;;;10.60;;
52210;SDS011;38179;52.756;6.906;2023-03-22T12:35:29;16.38;;;11.20;;
52210;SDS011;38179;52.756;6.906;2023-03-22T12:38:00;14.82;;;11.02;;
52210;SDS011;38179;52.756;6.906;2023-03-22T12:40:41;12.45;;;10.63;;
52210;SDS011;38179;52.756;6.906;2023-03-22T12:45:41;15.27;;;10.27;;
52210;SDS011;38179;52.756;6.906;2023-03-22T12:48:18;14.98;;;10.23;;
52210;SDS011;38179;52.756;6.906;2023-03-22T12:51:00;14.20;;;10.85;;
52210;SDS011;38179;52.756;6.906;2023-03-22T12:53:34;12.68;;;10.30;;
52210;SDS011;38179;52.756;6.906;2023-03-22T12:56:17;16.10;;;10.52;;
52210;SDS011;38179;52.756;6.906;2023-03-22T12:58:47;13.68;;;9.95;;
52210;SDS011;38179;52.756;6.906;2023-03-22T13:04:01;14.93;;;10.48;;
52210;SDS011;38179;52.756;6.906;2023-03-22T13:07:29;12.48;;;9.98;;
52210;SDS011;38179;52.756;6.906;2023-03-22T13:09:58;13.73;;;10.48;;
52210;SDS011;38179;52.756;6.906;2023-03-22T13:12:27;12.90;;;10.02;;
52210;SDS011;38179;52.756;6.906;2023-03-22T13:14:59;14.48;;;10.40;;
52210;SDS011;38179;52.756;6.906;2023-03-22T13:19:58;13.68;;;10.07;;
52210;SDS011;38179;52.756;6.906;2023-03-22T13:25:26;14.55;;;10.18;;
52210;SDS011;38179;52.756;6.906;2023-03-22T13:28:00;14.57;;;9.82;;
52210;SDS011;38179;52.756;6.906;2023-03-22T13:30:52;14.27;;;10.40;;
52210;SDS011;38179;52.756;6.906;2023-03-22T13:38:32;11.65;;;10.23;;
52210;SDS011;38179;52.756;6.906;2023-03-22T14:04:54;12.13;;;10.50;;
52210;SDS011;38179;52.756;6.906;2023-03-22T14:07:54;12.20;;;10.65;;
52210;SDS011;38179;52.756;6.906;2023-03-22T14:13:01;13.15;;;10.85;;
52210;SDS011;38179;52.756;6.906;2023-03-22T14:15:36;14.90;;;11.50;;
52210;SDS011;38179;52.756;6.906;2023-03-22T14:21:11;14.70;;;11.27;;
52210;SDS011;38179;52.756;6.906;2023-03-22T14:23:43;15.65;;;11.52;;
52210;SDS011;38179;52.756;6.906;2023-03-22T14:26:17;13.10;;;11.60;;
52210;SDS011;38179;52.756;6.906;2023-03-22T14:28:46;15.73;;;12.23;;
52210;SDS011;38179;52.756;6.906;2023-03-22T14:31:18;17.48;;;11.50;;
52210;SDS011;38179;52.756;6.906;2023-03-22T14:33:53;15.00;;;11.52;;
52210;SDS011;38179;52.756;6.906;2023-03-22T14:36:26;14.20;;;12.23;;
52210;SDS011;38179;52.756;6.906;2023-03-22T14:39:19;15.80;;;12.35;;
52210;SDS011;38179;52.756;6.906;2023-03-22T14:42:15;16.30;;;11.85;;
52210;SDS011;38179;52.756;6.906;2023-03-22T14:44:57;15.02;;;11.95;;
52210;SDS011;38179;52.756;6.906;2023-03-22T14:47:28;16.48;;;12.35;;
52210;SDS011;38179;52.756;6.906;2023-03-22T14:50:07;15.50;;;12.15;;
52210;SDS011;38179;52.756;6.906;2023-03-22T14:52:37;17.70;;;12.40;;
52210;SDS011;38179;52.756;6.906;2023-03-22T14:55:08;15.40;;;12.35;;
52210;SDS011;38179;52.756;6.906;2023-03-22T14:57:46;17.05;;;12.82;;
52210;SDS011;38179;52.756;6.906;2023-03-22T15:00:14;14.65;;;12.85;;
52210;SDS011;38179;52.756;6.906;2023-03-22T15:02:53;16.33;;;12.10;;
52210;SDS011;38179;52.756;6.906;2023-03-22T15:05:21;15.68;;;12.27;;
52210;SDS011;38179;52.756;6.906;2023-03-22T15:07:54;15.40;;;12.05;;
52210;SDS011;38179;52.756;6.906;2023-03-22T15:10:32;16.92;;;12.70;;
52210;SDS011;38179;52.756;6.906;2023-03-22T15:12:59;16.55;;;12.82;;
52210;SDS011;38179;52.756;6.906;2023-03-22T15:15:32;14.40;;;12.55;;
52210;SDS011;38179;52.756;6.906;2023-03-22T15:18:00;16.38;;;12.57;;
52210;SDS011;38179;52.756;6.906;2023-03-22T15:20:28;12.88;;;11.30;;
52210;SDS011;38179;52.756;6.906;2023-03-22T15:22:57;14.57;;;12.10;;
52210;SDS011;38179;52.756;6.906;2023-03-22T15:25:31;14.25;;;11.70;;
52210;SDS011;38179;52.756;6.906;2023-03-22T15:28:00;17.55;;;12.77;;
52210;SDS011;38179;52.756;6.906;2023-03-22T15:30:30;14.07;;;11.60;;
52210;SDS011;38179;52.756;6.906;2023-03-22T15:33:39;14.93;;;11.77;;
52210;SDS011;38179;52.756;6.906;2023-03-22T15:35:52;17.20;;;12.27;;
52210;SDS011;38179;52.756;6.906;2023-03-22T15:38:25;14.18;;;12.48;;
52210;SDS011;38179;52.756;6.906;2023-03-22T15:40:56;15.90;;;11.80;;
52210;SDS011;38179;52.756;6.906;2023-03-22T15:43:29;13.55;;;12.10;;
52210;SDS011;38179;52.756;6.906;2023-03-22T15:49:15;13.00;;;11.65;;
52210;SDS011;38179;52.756;6.906;2023-03-22T15:51:41;13.20;;;11.15;;
52210;SDS011;38179;52.756;6.906;2023-03-22T15:54:12;12.20;;;10.98;;
52210;SDS011;38179;52.756;6.906;2023-03-22T15:56:45;13.57;;;11.23;;
52210;SDS011;38179;52.756;6.906;2023-03-22T15:59:20;13.55;;;11.70;;
52210;SDS011;38179;52.756;6.906;2023-03-22T16:01:55;12.65;;;11.35;;
52210;SDS011;38179;52.756;6.906;2023-03-22T16:04:30;12.32;;;10.98;;
52210;SDS011;38179;52.756;6.906;2023-03-22T16:06:58;11.93;;;10.63;;
52210;SDS011;38179;52.756;6.906;2023-03-22T16:09:25;12.23;;;11.02;;
52210;SDS011;38179;52.756;6.906;2023-03-22T16:11:51;14.38;;;11.27;;
52210;SDS011;38179;52.756;6.906;2023-03-22T16:14:17;13.18;;;11.00;;
52210;SDS011;38179;52.756;6.906;2023-03-22T16:16:43;12.18;;;10.98;;
52210;SDS011;38179;52.756;6.906;2023-03-22T16:19:11;14.45;;;11.40;;
52210;SDS011;38179;52.756;6.906;2023-03-22T16:21:37;14.95;;;10.93;;
52210;SDS011;38179;52.756;6.906;2023-03-22T16:24:06;15.20;;;11.80;;
52210;SDS011;38179;52.756;6.906;2023-03-22T16:26:32;13.70;;;11.57;;
52210;SDS011;38179;52.756;6.906;2023-03-22T16:28:58;13.30;;;11.75;;
52210;SDS011;38179;52.756;6.906;2023-03-22T16:31:24;12.70;;;11.25;;
52210;SDS011;38179;52.756;6.906;2023-03-22T16:33:52;13.50;;;11.90;;
52210;SDS011;38179;52.756;6.906;2023-03-22T16:36:21;12.95;;;11.65;;
52210;SDS011;38179;52.756;6.906;2023-03-22T16:38:49;14.45;;;11.57;;
52210;SDS011;38179;52.756;6.906;2023-03-22T16:41:25;13.00;;;11.30;;
52210;SDS011;38179;52.756;6.906;2023-03-22T16:43:52;15.32;;;12.18;;
52210;SDS011;38179;52.756;6.906;2023-03-22T16:48:47;12.32;;;10.82;;
52210;SDS011;38179;52.756;6.906;2023-03-22T16:53:47;14.70;;;11.05;;
52210;SDS011;38179;52.756;6.906;2023-03-22T16:56:16;14.25;;;11.43;;